sensor_id;sensor_type;location;lat;lon;timestamp;pressure;altitude;pressure_sealevel;temperature;humidity
74230;BME280;62589;12.568;99.958;2023-06-24T00:00:12;100596.00;;;35.22;45.86
74230;BME280;62589;12.568;99.958;2023-06-24T00:02:39;100598.38;;;35.24;45.93
74230;BME280;62589;12.568;99.958;2023-06-24T00:05:09;100599.19;;;35.24;45.83
74230;BME280;62589;12.568;99.958;2023-06-24T00:07:35;100596.78;;;35.26;45.79
74230;BME280;62589;12.568;99.958;2023-06-24T00:10:13;100593.19;;;35.26;45.45
74230;BME280;62589;12.568;99.958;2023-06-24T00:12:40;100590.81;;;35.28;45.89
74230;BME280;62589;12.568;99.958;2023-06-24T00:15:07;100592.41;;;35.29;45.21
74230;BME280;62589;12.568;99.958;2023-06-24T00:17:35;100595.59;;;35.31;45.41
74230;BME280;62589;12.568;99.958;2023-06-24T00:20:02;100594.38;;;35.32;45.40
74230;BME280;62589;12.568;99.958;2023-06-24T00:22:31;100601.56;;;35.33;45.20
74230;BME280;62589;12.568;99.958;2023-06-24T00:24:57;100597.97;;;35.32;45.33
74230;BME280;62589;12.568;99.958;2023-06-24T00:27:24;100606.69;;;35.34;45.48
74230;BME280;62589;12.568;99.958;2023-06-24T00:29:51;100605.13;;;35.33;45.26
74230;BME280;62589;12.568;99.958;2023-06-24T00:32:17;100601.50;;;35.36;45.69
74230;BME280;62589;12.568;99.958;2023-06-24T00:34:44;100603.91;;;35.34;45.91
74230;BME280;62589;12.568;99.958;2023-06-24T00:37:11;100605.09;;;35.37;45.64
74230;BME280;62589;12.568;99.958;2023-06-24T00:39:37;100605.06;;;35.40;45.79
74230;BME280;62589;12.568;99.958;2023-06-24T00:42:04;100605.06;;;35.40;45.85
74230;BME280;62589;12.568;99.958;2023-06-24T00:44:30;100605.06;;;35.40;46.00
74230;BME280;62589;12.568;99.958;2023-06-24T00:46:57;100613.41;;;35.44;46.12
74230;BME280;62589;12.568;99.958;2023-06-24T00:49:23;100605.81;;;35.48;45.81
74230;BME280;62589;12.568;99.958;2023-06-24T00:51:49;100604.94;;;35.55;45.95
74230;BME280;62589;12.568;99.958;2023-06-24T00:54:17;100602.94;;;35.59;45.98
74230;BME280;62589;12.568;99.958;2023-06-24T00:56:43;100606.47;;;35.66;45.64
74230;BME280;62589;12.568;99.958;2023-06-24T00:59:13;100607.22;;;35.70;46.11
74230;BME280;62589;12.568;99.958;2023-06-24T01:01:41;100608.78;;;35.78;46.10
74230;BME280;62589;12.568;99.958;2023-06-24T01:04:08;100603.13;;;35.86;45.99
74230;BME280;62589;12.568;99.958;2023-06-24T01:06:35;100607.91;;;35.89;45.55
74230;BME280;62589;12.568;99.958;2023-06-24T01:09:03;100609.47;;;35.90;45.42
74230;BME280;62589;12.568;99.958;2023-06-24T01:11:30;100617.44;;;35.95;45.45
74230;BME280;62589;12.568;99.958;2023-06-24T01:13:57;100614.25;;;35.93;44.77
74230;BME280;62589;12.568;99.958;2023-06-24T01:16:55;100624.97;;;35.98;44.74
74230;BME280;62589;12.568;99.958;2023-06-24T01:37:17;100623.53;;;36.20;44.74
74230;BME280;62589;12.568;99.958;2023-06-24T01:40:14;100625.50;;;36.23;44.84
74230;BME280;62589;12.568;99.958;2023-06-24T01:42:45;100625.50;;;36.23;44.98
74230;BME280;62589;12.568;99.958;2023-06-24T01:45:15;100625.91;;;36.25;45.29
74230;BME280;62589;12.568;99.958;2023-06-24T01:47:46;100627.09;;;36.28;45.24
74230;BME280;62589;12.568;99.958;2023-06-24T01:50:14;100625.09;;;36.28;44.96
74230;BME280;62589;12.568;99.958;2023-06-24T01:52:44;100628.66;;;36.32;44.56
74230;BME280;62589;12.568;99.958;2023-06-24T01:55:15;100636.16;;;36.39;44.29
74230;BME280;62589;12.568;99.958;2023-06-24T01:57:44;100634.44;;;36.48;44.70
74230;BME280;62589;12.568;99.958;2023-06-24T02:00:13;100631.50;;;36.59;44.85
74230;BME280;62589;12.568;99.958;2023-06-24T02:02:40;100627.81;;;36.69;43.99
74230;BME280;62589;12.568;99.958;2023-06-24T02:05:08;100627.34;;;36.78;44.03
74230;BME280;62589;12.568;99.958;2023-06-24T02:07:35;100623.22;;;36.86;44.18
74230;BME280;62589;12.568;99.958;2023-06-24T02:10:02;100629.09;;;36.95;44.12
74230;BME280;62589;12.568;99.958;2023-06-24T02:12:30;100627.41;;;37.01;43.32
74230;BME280;62589;12.568;99.958;2023-06-24T02:14:57;100625.69;;;37.11;42.96
74230;BME280;62589;12.568;99.958;2023-06-24T02:17:25;100623.97;;;37.21;42.87
74230;BME280;62589;12.568;99.958;2023-06-24T02:19:56;100619.84;;;37.29;42.16
74230;BME280;62589;12.568;99.958;2023-06-24T02:22:24;100627.72;;;37.37;41.83
74230;BME280;62589;12.568;99.958;2023-06-24T02:24:51;100620.78;;;37.45;41.71
74230;BME280;62589;12.568;99.958;2023-06-24T02:27:19;100625.50;;;37.52;41.76
74230;BME280;62589;12.568;99.958;2023-06-24T02:29:46;100623.44;;;37.56;41.22
74230;BME280;62589;12.568;99.958;2023-06-24T02:32:13;100622.22;;;37.57;41.50
74230;BME280;62589;12.568;99.958;2023-06-24T02:34:40;100619.41;;;37.57;40.86
74230;BME280;62589;12.568;99.958;2023-06-24T02:37:06;100614.56;;;37.61;40.77
74230;BME280;62589;12.568;99.958;2023-06-24T02:39:33;100610.50;;;37.62;40.89
74230;BME280;62589;12.568;99.958;2023-06-24T02:41:59;100615.69;;;37.64;41.07
74230;BME280;62589;12.568;99.958;2023-06-24T02:44:26;100614.50;;;37.65;41.22
74230;BME280;62589;12.568;99.958;2023-06-24T02:46:53;100611.69;;;37.65;40.75
74230;BME280;62589;12.568;99.958;2023-06-24T02:49:20;100614.44;;;37.68;40.86
74230;BME280;62589;12.568;99.958;2023-06-24T02:51:48;100602.38;;;37.71;40.87
74230;BME280;62589;12.568;99.958;2023-06-24T02:54:15;100605.50;;;37.77;40.97
74230;BME280;62589;12.568;99.958;2023-06-24T02:56:42;100605.50;;;37.77;39.59
74230;BME280;62589;12.568;99.958;2023-06-24T02:59:10;100606.66;;;37.79;39.66
74230;BME280;62589;12.568;99.958;2023-06-24T03:01:37;100604.13;;;37.85;39.72
74230;BME280;62589;12.568;99.958;2023-06-24T03:04:11;100602.56;;;37.84;39.80
74230;BME280;62589;12.568;99.958;2023-06-24T03:06:38;100605.59;;;37.93;40.41
74230;BME280;62589;12.568;99.958;2023-06-24T03:09:06;100590.69;;;38.00;40.27
74230;BME280;62589;12.568;99.958;2023-06-24T03:11:40;100592.97;;;38.05;40.25
74230;BME280;62589;12.568;99.958;2023-06-24T03:14:07;100589.22;;;38.15;40.08
74230;BME280;62589;12.568;99.958;2023-06-24T03:16:34;100586.28;;;38.22;40.16
74230;BME280;62589;12.568;99.958;2023-06-24T03:19:01;100590.16;;;38.28;40.31
74230;BME280;62589;12.568;99.958;2023-06-24T03:21:27;100581.25;;;38.33;40.32
74230;BME280;62589;12.568;99.958;2023-06-24T03:23:57;100574.69;;;38.40;40.24
74230;BME280;62589;12.568;99.958;2023-06-24T03:26:37;100580.94;;;38.47;40.53
74230;BME280;62589;12.568;99.958;2023-06-24T03:29:04;100578.56;;;38.46;39.48
74230;BME280;62589;12.568;99.958;2023-06-24T03:31:33;100576.47;;;38.50;39.67
74230;BME280;62589;12.568;99.958;2023-06-24T03:33:59;100572.34;;;38.58;39.23
74230;BME280;62589;12.568;99.958;2023-06-24T03:36:26;100571.41;;;38.65;38.83
74230;BME280;62589;12.568;99.958;2023-06-24T03:38:52;100558.44;;;38.71;39.19
74230;BME280;62589;12.568;99.958;2023-06-24T03:41:19;100564.25;;;38.80;38.92
74230;BME280;62589;12.568;99.958;2023-06-24T03:43:46;100560.22;;;38.81;39.09
74230;BME280;62589;12.568;99.958;2023-06-24T03:46:12;100562.53;;;38.86;39.50
74230;BME280;62589;12.568;99.958;2023-06-24T03:48:39;100561.97;;;38.91;39.73
74230;BME280;62589;12.568;99.958;2023-06-24T03:51:06;100554.09;;;38.86;40.22
74230;BME280;62589;12.568;99.958;2023-06-24T03:53:32;100552.16;;;38.83;39.30
74230;BME280;62589;12.568;99.958;2023-06-24T03:55:59;100550.94;;;38.84;39.40
74230;BME280;62589;12.568;99.958;2023-06-24T03:58:27;100546.53;;;38.83;39.94
74230;BME280;62589;12.568;99.958;2023-06-24T04:00:53;100540.75;;;38.90;40.11
74230;BME280;62589;12.568;99.958;2023-06-24T04:03:23;100534.34;;;38.90;39.78
74230;BME280;62589;12.568;99.958;2023-06-24T04:05:55;100530.75;;;38.89;39.80
74230;BME280;62589;12.568;99.958;2023-06-24T04:08:22;100535.56;;;38.89;39.48
74230;BME280;62589;12.568;99.958;2023-06-24T04:10:51;100528.66;;;38.93;39.74
74230;BME280;62589;12.568;99.958;2023-06-24T04:13:17;100529.44;;;38.94;39.83
74230;BME280;62589;12.568;99.958;2023-06-24T04:15:44;100516.50;;;39.00;39.92
74230;BME280;62589;12.568;99.958;2023-06-24T04:18:10;100517.66;;;39.02;39.82
74230;BME280;62589;12.568;99.958;2023-06-24T04:20:37;100514.06;;;39.02;39.91
74230;BME280;62589;12.568;99.958;2023-06-24T04:23:04;100521.16;;;39.06;39.93
74230;BME280;62589;12.568;99.958;2023-06-24T04:25:36;100514.41;;;39.04;40.26
74230;BME280;62589;12.568;99.958;2023-06-24T04:28:03;100505.28;;;39.00;39.87
74230;BME280;62589;12.568;99.958;2023-06-24T04:30:31;100510.06;;;38.99;39.75
74230;BME280;62589;12.568;99.958;2023-06-24T04:32:57;100511.47;;;38.91;39.57
74230;BME280;62589;12.568;99.958;2023-06-24T04:35:24;100516.56;;;38.96;39.46
74230;BME280;62589;12.568;99.958;2023-06-24T04:37:51;100510.41;;;38.85;39.31
74230;BME280;62589;12.568;99.958;2023-06-24T04:40:18;100504.81;;;38.85;39.56
74230;BME280;62589;12.568;99.958;2023-06-24T04:42:45;100504.88;;;38.81;39.03
74230;BME280;62589;12.568;99.958;2023-06-24T04:45:12;100509.00;;;38.77;39.65
74230;BME280;62589;12.568;99.958;2023-06-24T04:47:38;100521.09;;;38.74;39.90
74230;BME280;62589;12.568;99.958;2023-06-24T04:50:05;100517.13;;;38.71;40.54
74230;BME280;62589;12.568;99.958;2023-06-24T04:52:32;100518.00;;;38.68;40.64
74230;BME280;62589;12.568;99.958;2023-06-24T04:54:58;100520.44;;;38.66;40.34
74230;BME280;62589;12.568;99.958;2023-06-24T04:57:30;100513.72;;;38.64;40.68
74230;BME280;62589;12.568;99.958;2023-06-24T04:59:57;100506.53;;;38.63;40.19
74230;BME280;62589;12.568;99.958;2023-06-24T05:02:24;100500.13;;;38.62;40.32
74230;BME280;62589;12.568;99.958;2023-06-24T05:04:52;100503.72;;;38.63;40.93
74230;BME280;62589;12.568;99.958;2023-06-24T05:07:19;100502.06;;;38.65;40.93
74230;BME280;62589;12.568;99.958;2023-06-24T05:09:47;100504.06;;;38.65;41.02
74230;BME280;62589;12.568;99.958;2023-06-24T05:12:14;100493.09;;;38.70;40.91
74230;BME280;62589;12.568;99.958;2023-06-24T05:14:41;100489.78;;;38.75;40.40
74230;BME280;62589;12.568;99.958;2023-06-24T05:17:07;100484.09;;;38.79;40.76
74230;BME280;62589;12.568;99.958;2023-06-24T05:19:33;100480.00;;;38.83;40.60
74230;BME280;62589;12.568;99.958;2023-06-24T05:22:00;100461.50;;;38.86;40.68
74230;BME280;62589;12.568;99.958;2023-06-24T05:24:26;100460.22;;;38.87;40.44
74230;BME280;62589;12.568;99.958;2023-06-24T05:26:53;100456.91;;;38.92;40.40
74230;BME280;62589;12.568;99.958;2023-06-24T05:29:19;100465.25;;;38.96;40.00
74230;BME280;62589;12.568;99.958;2023-06-24T05:31:46;100465.16;;;38.99;40.14
74230;BME280;62589;12.568;99.958;2023-06-24T05:34:12;100468.94;;;38.93;40.11
74230;BME280;62589;12.568;99.958;2023-06-24T05:36:39;100458.69;;;39.02;40.43
74230;BME280;62589;12.568;99.958;2023-06-24T05:39:05;100465.84;;;38.87;40.02
74230;BME280;62589;12.568;99.958;2023-06-24T05:41:34;100463.94;;;38.84;39.96
74230;BME280;62589;12.568;99.958;2023-06-24T05:44:06;100463.81;;;38.88;40.30
74230;BME280;62589;12.568;99.958;2023-06-24T05:46:37;100459.47;;;38.87;40.03
74230;BME280;62589;12.568;99.958;2023-06-24T05:49:03;100451.81;;;38.87;39.69
74230;BME280;62589;12.568;99.958;2023-06-24T05:51:30;100439.47;;;38.84;39.44
74230;BME280;62589;12.568;99.958;2023-06-24T05:53:56;100433.06;;;38.84;39.18
74230;BME280;62589;12.568;99.958;2023-06-24T05:56:23;100430.16;;;38.88;39.86
74230;BME280;62589;12.568;99.958;2023-06-24T05:58:49;100428.59;;;38.87;40.22
74230;BME280;62589;12.568;99.958;2023-06-24T06:01:16;100424.53;;;38.88;39.68
74230;BME280;62589;12.568;99.958;2023-06-24T06:03:42;100422.00;;;38.93;39.69
74230;BME280;62589;12.568;99.958;2023-06-24T06:06:09;100413.56;;;38.93;39.57
74230;BME280;62589;12.568;99.958;2023-06-24T06:08:35;100407.44;;;38.98;39.45
74230;BME280;62589;12.568;99.958;2023-06-24T06:11:02;100406.59;;;39.01;39.23
74230;BME280;62589;12.568;99.958;2023-06-24T06:13:29;100405.38;;;39.02;39.09
74230;BME280;62589;12.568;99.958;2023-06-24T06:15:56;100395.28;;;39.05;39.29
74230;BME280;62589;12.568;99.958;2023-06-24T06:18:23;100397.66;;;39.06;39.43
74230;BME280;62589;12.568;99.958;2023-06-24T06:20:50;100392.03;;;39.06;39.05
74230;BME280;62589;12.568;99.958;2023-06-24T06:23:16;100388.88;;;39.04;39.76
74230;BME280;62589;12.568;99.958;2023-06-24T06:25:43;100389.66;;;39.05;39.62
74230;BME280;62589;12.568;99.958;2023-06-24T06:28:10;100375.88;;;38.94;39.37
74230;BME280;62589;12.568;99.958;2023-06-24T06:30:36;100372.56;;;38.83;39.52
74230;BME280;62589;12.568;99.958;2023-06-24T06:33:03;100370.09;;;38.85;39.52
74230;BME280;62589;12.568;99.958;2023-06-24T06:35:29;100372.56;;;38.83;40.18
74230;BME280;62589;12.568;99.958;2023-06-24T06:37:57;100366.84;;;38.87;40.02
74230;BME280;62589;12.568;99.958;2023-06-24T06:40:24;100365.59;;;38.88;39.84
74230;BME280;62589;12.568;99.958;2023-06-24T06:42:50;100377.47;;;38.79;39.66
74230;BME280;62589;12.568;99.958;2023-06-24T06:45:17;100361.94;;;38.74;39.68
74230;BME280;62589;12.568;99.958;2023-06-24T06:47:43;100369.56;;;38.74;39.58
74230;BME280;62589;12.568;99.958;2023-06-24T06:50:10;100374.47;;;38.70;39.52
74230;BME280;62589;12.568;99.958;2023-06-24T06:52:36;100375.81;;;38.65;39.52
74230;BME280;62589;12.568;99.958;2023-06-24T06:55:04;100370.63;;;38.64;40.16
74230;BME280;62589;12.568;99.958;2023-06-24T06:57:30;100375.53;;;38.60;39.79
74230;BME280;62589;12.568;99.958;2023-06-24T06:59:57;100397.69;;;38.54;40.24
74230;BME280;62589;12.568;99.958;2023-06-24T07:02:24;100399.69;;;38.54;39.82
74230;BME280;62589;12.568;99.958;2023-06-24T07:04:50;100401.19;;;38.42;40.62
74230;BME280;62589;12.568;99.958;2023-06-24T07:07:17;100400.47;;;38.38;40.79
74230;BME280;62589;12.568;99.958;2023-06-24T07:09:43;100414.50;;;38.38;41.07
74230;BME280;62589;12.568;99.958;2023-06-24T07:12:12;100409.41;;;38.33;40.74
74230;BME280;62589;12.568;99.958;2023-06-24T07:14:39;100411.47;;;38.29;41.99
74230;BME280;62589;12.568;99.958;2023-06-24T07:17:06;100406.84;;;38.22;41.58
74230;BME280;62589;12.568;99.958;2023-06-24T07:19:33;100396.56;;;38.15;42.50
74230;BME280;62589;12.568;99.958;2023-06-24T07:22:00;100362.44;;;38.01;43.34
74230;BME280;62589;12.568;99.958;2023-06-24T07:24:27;100345.91;;;37.87;44.82
74230;BME280;62589;12.568;99.958;2023-06-24T07:26:53;100344.16;;;37.76;45.44
74230;BME280;62589;12.568;99.958;2023-06-24T07:29:20;100359.16;;;37.66;46.85
74230;BME280;62589;12.568;99.958;2023-06-24T07:31:47;100360.50;;;37.58;46.62
74230;BME280;62589;12.568;99.958;2023-06-24T07:34:13;100367.81;;;37.52;45.99
74230;BME280;62589;12.568;99.958;2023-06-24T07:36:40;100359.91;;;37.47;46.01
74230;BME280;62589;12.568;99.958;2023-06-24T07:39:06;100357.59;;;37.42;45.83
74230;BME280;62589;12.568;99.958;2023-06-24T07:41:33;100352.09;;;37.38;46.62
74230;BME280;62589;12.568;99.958;2023-06-24T07:43:59;100356.19;;;37.34;46.18
74230;BME280;62589;12.568;99.958;2023-06-24T07:46:25;100357.84;;;37.31;45.78
74230;BME280;62589;12.568;99.958;2023-06-24T07:48:53;100358.25;;;37.30;45.87
74230;BME280;62589;12.568;99.958;2023-06-24T07:51:20;100361.06;;;37.30;46.31
74230;BME280;62589;12.568;99.958;2023-06-24T07:53:46;100350.28;;;37.28;46.98
74230;BME280;62589;12.568;99.958;2023-06-24T07:56:13;100355.88;;;37.28;47.59
74230;BME280;62589;12.568;99.958;2023-06-24T07:58:39;100355.09;;;37.28;47.62
74230;BME280;62589;12.568;99.958;2023-06-24T08:01:05;100352.72;;;37.26;49.29
74230;BME280;62589;12.568;99.958;2023-06-24T08:03:33;100347.91;;;37.27;50.51
74230;BME280;62589;12.568;99.958;2023-06-24T08:05:59;100341.94;;;37.25;50.40
74230;BME280;62589;12.568;99.958;2023-06-24T08:08:25;100334.34;;;37.25;49.90
74230;BME280;62589;12.568;99.958;2023-06-24T08:10:52;100331.53;;;37.25;49.25
74230;BME280;62589;12.568;99.958;2023-06-24T08:13:18;100332.34;;;37.26;49.19
74230;BME280;62589;12.568;99.958;2023-06-24T08:15:45;100324.72;;;37.26;49.90
74230;BME280;62589;12.568;99.958;2023-06-24T08:18:11;100325.09;;;37.28;49.73
74230;BME280;62589;12.568;99.958;2023-06-24T08:20:37;100325.53;;;37.27;50.16
74230;BME280;62589;12.568;99.958;2023-06-24T08:23:04;100319.91;;;37.27;50.34
74230;BME280;62589;12.568;99.958;2023-06-24T08:25:30;100296.66;;;37.30;49.68
74230;BME280;62589;12.568;99.958;2023-06-24T08:27:57;100298.25;;;37.31;49.45
74230;BME280;62589;12.568;99.958;2023-06-24T08:30:24;100303.06;;;37.30;48.48
74230;BME280;62589;12.568;99.958;2023-06-24T08:32:50;100295.44;;;37.31;48.26
74230;BME280;62589;12.568;99.958;2023-06-24T08:35:17;100289.41;;;37.32;47.45
74230;BME280;62589;12.568;99.958;2023-06-24T08:37:43;100279.00;;;37.33;47.05
74230;BME280;62589;12.568;99.958;2023-06-24T08:40:10;100269.41;;;37.34;47.34
74230;BME280;62589;12.568;99.958;2023-06-24T08:42:36;100269.41;;;37.34;47.04
74230;BME280;62589;12.568;99.958;2023-06-24T08:45:03;100276.22;;;37.33;46.73
74230;BME280;62589;12.568;99.958;2023-06-24T08:47:30;100271.84;;;37.32;46.42
74230;BME280;62589;12.568;99.958;2023-06-24T08:50:11;100280.59;;;37.34;46.77
74230;BME280;62589;12.568;99.958;2023-06-24T08:52:38;100273.47;;;37.29;46.36
74230;BME280;62589;12.568;99.958;2023-06-24T08:55:10;100268.66;;;37.30;46.51
74230;BME280;62589;12.568;99.958;2023-06-24T08:57:39;100261.44;;;37.32;46.67
74230;BME280;62589;12.568;99.958;2023-06-24T09:00:06;100248.66;;;37.31;46.87
74230;BME280;62589;12.568;99.958;2023-06-24T09:02:37;100245.91;;;37.28;46.25
74230;BME280;62589;12.568;99.958;2023-06-24T09:05:05;100246.41;;;37.23;46.53
74230;BME280;62589;12.568;99.958;2023-06-24T09:07:32;100251.22;;;37.22;47.39
74230;BME280;62589;12.568;99.958;2023-06-24T09:09:59;100239.72;;;37.16;47.46
74230;BME280;62589;12.568;99.958;2023-06-24T09:12:32;100247.41;;;37.12;47.87
74230;BME280;62589;12.568;99.958;2023-06-24T09:14:59;100254.00;;;37.02;47.42
74230;BME280;62589;12.568;99.958;2023-06-24T09:17:26;100263.28;;;36.99;47.44
74230;BME280;62589;12.568;99.958;2023-06-24T09:19:53;100262.03;;;37.00;47.81
74230;BME280;62589;12.568;99.958;2023-06-24T09:22:20;100274.94;;;36.94;47.42
74230;BME280;62589;12.568;99.958;2023-06-24T09:24:48;100262.19;;;36.93;48.13
74230;BME280;62589;12.568;99.958;2023-06-24T09:27:16;100255.84;;;36.89;48.24
74230;BME280;62589;12.568;99.958;2023-06-24T09:29:45;100257.63;;;36.79;48.44
74230;BME280;62589;12.568;99.958;2023-06-24T09:32:13;100250.00;;;36.80;49.00
74230;BME280;62589;12.568;99.958;2023-06-24T09:34:39;100248.00;;;36.80;49.00
74230;BME280;62589;12.568;99.958;2023-06-24T09:37:06;100253.28;;;36.78;49.03
74230;BME280;62589;12.568;99.958;2023-06-24T09:39:37;100254.03;;;36.79;49.44
74230;BME280;62589;12.568;99.958;2023-06-24T09:42:04;100248.44;;;36.79;49.12
74230;BME280;62589;12.568;99.958;2023-06-24T09:44:32;100248.44;;;36.79;48.32
74230;BME280;62589;12.568;99.958;2023-06-24T09:46:59;100249.78;;;36.71;49.00
74230;BME280;62589;12.568;99.958;2023-06-24T09:49:26;100247.31;;;36.76;48.79
74230;BME280;62589;12.568;99.958;2023-06-24T09:51:57;100238.22;;;36.69;48.79
74230;BME280;62589;12.568;99.958;2023-06-24T09:54:26;100239.44;;;36.68;48.75
74230;BME280;62589;12.568;99.958;2023-06-24T09:57:01;100239.44;;;36.68;48.90
74230;BME280;62589;12.568;99.958;2023-06-24T09:59:28;100242.34;;;36.61;48.84
74230;BME280;62589;12.568;99.958;2023-06-24T10:01:57;100245.16;;;36.61;48.67
74230;BME280;62589;12.568;99.958;2023-06-24T10:04:25;100245.56;;;36.59;48.97
74230;BME280;62589;12.568;99.958;2023-06-24T10:06:52;100256.41;;;36.57;48.65
74230;BME280;62589;12.568;99.958;2023-06-24T10:09:19;100242.88;;;36.56;48.49
74230;BME280;62589;12.568;99.958;2023-06-24T10:11:46;100251.25;;;36.56;48.98
74230;BME280;62589;12.568;99.958;2023-06-24T10:14:15;100239.69;;;36.54;48.70
74230;BME280;62589;12.568;99.958;2023-06-24T10:16:42;100246.09;;;36.54;49.02
74230;BME280;62589;12.568;99.958;2023-06-24T10:19:09;100246.09;;;36.54;48.90
74230;BME280;62589;12.568;99.958;2023-06-24T10:21:53;100263.72;;;36.51;48.66
74230;BME280;62589;12.568;99.958;2023-06-24T10:24:34;100261.72;;;36.52;48.68
74230;BME280;62589;12.568;99.958;2023-06-24T10:27:05;100269.03;;;36.42;48.92
74230;BME280;62589;12.568;99.958;2023-06-24T10:29:36;100271.00;;;36.45;49.04
74230;BME280;62589;12.568;99.958;2023-06-24T10:32:05;100259.03;;;36.44;48.80
74230;BME280;62589;12.568;99.958;2023-06-24T10:34:46;100269.00;;;36.45;49.28
74230;BME280;62589;12.568;99.958;2023-06-24T10:37:25;100270.63;;;36.43;49.26
74230;BME280;62589;12.568;99.958;2023-06-24T10:40:02;100269.34;;;36.47;49.72
74230;BME280;62589;12.568;99.958;2023-06-24T10:42:42;100272.88;;;36.52;50.17
74230;BME280;62589;12.568;99.958;2023-06-24T10:45:18;100261.75;;;36.48;50.18
74230;BME280;62589;12.568;99.958;2023-06-24T10:47:49;100260.97;;;36.47;49.87
74230;BME280;62589;12.568;99.958;2023-06-24T10:50:20;100265.34;;;36.48;49.86
74230;BME280;62589;12.568;99.958;2023-06-24T10:52:49;100267.34;;;36.48;50.04
74230;BME280;62589;12.568;99.958;2023-06-24T10:55:17;100263.78;;;36.47;49.64
74230;BME280;62589;12.568;99.958;2023-06-24T10:57:44;100256.59;;;36.46;50.34
74230;BME280;62589;12.568;99.958;2023-06-24T11:00:12;100269.00;;;36.45;50.10
74230;BME280;62589;12.568;99.958;2023-06-24T11:02:39;100264.25;;;36.42;50.13
74230;BME280;62589;12.568;99.958;2023-06-24T11:05:06;100272.78;;;36.35;50.11
74230;BME280;62589;12.568;99.958;2023-06-24T11:07:34;100257.22;;;36.34;49.98
74230;BME280;62589;12.568;99.958;2023-06-24T11:10:10;100262.06;;;36.30;49.99
74230;BME280;62589;12.568;99.958;2023-06-24T11:12:39;100258.97;;;36.21;50.24
74230;BME280;62589;12.568;99.958;2023-06-24T11:15:11;100247.34;;;36.26;50.19
74230;BME280;62589;12.568;99.958;2023-06-24T11:17:38;100254.53;;;36.27;50.43
74230;BME280;62589;12.568;99.958;2023-06-24T11:20:10;100259.75;;;36.25;50.45
74230;BME280;62589;12.568;99.958;2023-06-24T11:22:37;100261.28;;;36.30;50.42
74230;BME280;62589;12.568;99.958;2023-06-24T11:25:05;100261.69;;;36.28;50.34
74230;BME280;62589;12.568;99.958;2023-06-24T11:27:32;100270.88;;;36.29;49.95
74230;BME280;62589;12.568;99.958;2023-06-24T11:29:59;100271.28;;;36.27;50.18
74230;BME280;62589;12.568;99.958;2023-06-24T11:32:41;100283.59;;;36.33;49.98
74230;BME280;62589;12.568;99.958;2023-06-24T11:35:10;100287.16;;;36.34;49.81
74230;BME280;62589;12.568;99.958;2023-06-24T11:37:40;100290.34;;;36.36;49.95
74230;BME280;62589;12.568;99.958;2023-06-24T11:40:07;100293.13;;;36.36;49.75
74230;BME280;62589;12.568;99.958;2023-06-24T11:42:39;100295.84;;;36.39;49.45
74230;BME280;62589;12.568;99.958;2023-06-24T11:45:08;100300.22;;;36.40;49.36
74230;BME280;62589;12.568;99.958;2023-06-24T11:47:36;100296.63;;;36.40;49.19
74230;BME280;62589;12.568;99.958;2023-06-24T11:50:05;100294.63;;;36.40;49.25
74230;BME280;62589;12.568;99.958;2023-06-24T11:52:43;100297.78;;;36.42;49.41
74230;BME280;62589;12.568;99.958;2023-06-24T11:55:28;100295.38;;;36.44;49.21
74230;BME280;62589;12.568;99.958;2023-06-24T11:57:59;100295.84;;;36.39;49.24
74230;BME280;62589;12.568;99.958;2023-06-24T12:00:31;100299.00;;;36.41;49.29
74230;BME280;62589;12.568;99.958;2023-06-24T12:03:05;100305.81;;;36.40;49.29
74230;BME280;62589;12.568;99.958;2023-06-24T12:05:35;100306.19;;;36.42;49.31
74230;BME280;62589;12.568;99.958;2023-06-24T12:08:04;100308.97;;;36.42;49.13
74230;BME280;62589;12.568;99.958;2023-06-24T12:10:33;100316.94;;;36.44;49.45
74230;BME280;62589;12.568;99.958;2023-06-24T12:13:01;100316.16;;;36.43;49.59
74230;BME280;62589;12.568;99.958;2023-06-24T12:15:29;100315.72;;;36.45;49.41
74230;BME280;62589;12.568;99.958;2023-06-24T12:17:56;100323.69;;;36.46;49.34
74230;BME280;62589;12.568;99.958;2023-06-24T12:20:23;100322.47;;;36.47;49.52
74230;BME280;62589;12.568;99.958;2023-06-24T12:22:50;100324.06;;;36.48;49.50
74230;BME280;62589;12.568;99.958;2023-06-24T12:25:17;100327.28;;;36.47;49.66
74230;BME280;62589;12.568;99.958;2023-06-24T12:27:44;100331.66;;;36.48;49.76
74230;BME280;62589;12.568;99.958;2023-06-24T12:30:11;100339.25;;;36.47;49.42
74230;BME280;62589;12.568;99.958;2023-06-24T12:32:38;100341.63;;;36.49;49.65
74230;BME280;62589;12.568;99.958;2023-06-24T12:35:05;100340.84;;;36.48;49.57
74230;BME280;62589;12.568;99.958;2023-06-24T12:37:34;100340.47;;;36.46;49.71
74230;BME280;62589;12.568;99.958;2023-06-24T12:40:04;100350.81;;;36.49;49.53
74230;BME280;62589;12.568;99.958;2023-06-24T12:42:31;100342.06;;;36.47;49.44
74230;BME280;62589;12.568;99.958;2023-06-24T12:44:58;100353.25;;;36.47;49.36
74230;BME280;62589;12.568;99.958;2023-06-24T12:47:25;100348.88;;;36.46;49.80
74230;BME280;62589;12.568;99.958;2023-06-24T12:49:51;100352.06;;;36.45;49.64
74230;BME280;62589;12.568;99.958;2023-06-24T12:52:19;100352.88;;;36.45;49.46
74230;BME280;62589;12.568;99.958;2023-06-24T12:54:46;100357.66;;;36.45;49.75
74230;BME280;62589;12.568;99.958;2023-06-24T12:57:12;100362.47;;;36.44;49.75
74230;BME280;62589;12.568;99.958;2023-06-24T12:59:39;100355.66;;;36.45;49.61
74230;BME280;62589;12.568;99.958;2023-06-24T13:02:05;100366.84;;;36.45;49.71